Time;durP1;ratioP1;P1;durP2;ratioP2;P2;SDS_P1;SDS_P2;PMS_P1;PMS_P2;Temp;Humidity;BMP_temperature;BMP_pressure;BME280_temperature;BME280_humidity;BME280_pressure;Samples;Min_cycle;Max_cycle;Signal;HPM_P1;HPM_P2
2021/04/28 00:00:17;;;;;;;13.50;7.50;;;;;;;6.92;80.23;94959.25;1035623;28;20010;-60
2021/04/28 00:00:48;;;;;;;14.80;6.82;;;;;;;6.91;80.42;94952.34;1035542;28;20484;-60
2021/04/28 00:01:19;;;;;;;12.43;7.50;;;;;;;6.90;80.76;94950.72;1035647;28;20018;-60
2021/04/28 00:01:50;;;;;;;12.90;7.70;;;;;;;6.89;80.71;94953.53;1035653;28;20416;-60
2021/04/28 00:02:21;;;;;;;13.25;7.30;;;;;;;6.89;80.95;94956.16;1031554;28;20365;-60
2021/04/28 00:02:53;;;;;;;13.65;7.63;;;;;;;6.89;80.84;94956.16;1035540;28;20018;-60
2021/04/28 00:03:23;;;;;;;13.35;8.18;;;;;;;6.86;81.25;94954.72;1035614;28;20014;-60
2021/04/28 00:03:54;;;;;;;11.20;7.32;;;;;;;6.81;81.76;94951.78;1035418;28;20018;-60
2021/04/28 00:04:25;;;;;;;13.95;8.07;;;;;;;6.77;82.87;94955.75;1035602;28;20018;-60
2021/04/28 00:04:56;;;;;;;15.25;7.90;;;;;;;6.80;82.47;94950.13;1035500;28;20092;-62
2021/04/28 00:05:27;;;;;;;13.88;7.13;;;;;;;6.79;82.92;94964.31;1035628;28;20422;-60
2021/04/28 00:05:58;;;;;;;15.27;7.80;;;;;;;6.63;82.96;94928.31;1039818;28;20040;-60
2021/04/28 00:06:29;;;;;;;12.55;7.43;;;;;;;6.80;83.04;94950.13;1035559;28;20061;-60
2021/04/28 00:07:03;;;;;;;12.88;8.13;;;;;;;6.79;83.54;94956.41;1031421;28;20057;-61
2021/04/28 00:07:34;;;;;;;11.27;7.80;;;;;;;6.78;83.90;94952.13;1027486;28;20027;-61
2021/04/28 00:08:06;;;;;;;10.25;7.47;;;;;;;6.75;84.42;94953.28;1035663;28;20373;-61
2021/04/28 00:08:37;;;;;;;12.63;8.10;;;;;;;6.74;84.59;94958.75;1031493;28;20067;-60
2021/04/28 00:09:07;;;;;;;12.38;6.68;;;;;;;6.77;84.63;94958.41;1035417;28;20029;-59
2021/04/28 00:09:39;;;;;;;13.73;7.60;;;;;;;6.77;84.57;94956.59;1031433;28;20113;-61
2021/04/28 00:10:11;;;;;;;16.35;7.95;;;;;;;6.77;84.92;94955.75;1035571;28;20099;-60
2021/04/28 00:10:42;;;;;;;15.85;7.75;;;;;;;6.77;84.87;94963.66;1035690;28;20407;-60
2021/04/28 00:11:13;;;;;;;12.10;7.57;;;;;;;6.79;85.04;94957.22;1039261;28;20021;-60
2021/04/28 00:11:43;;;;;;;15.90;7.40;;;;;;;6.69;85.23;94940.81;1035553;28;20506;-60
2021/04/28 00:12:14;;;;;;;12.35;7.07;;;;;;;6.77;85.57;94961.03;1031606;28;20023;-61
2021/04/28 00:12:45;;;;;;;13.75;7.90;;;;;;;6.74;85.80;94950.81;1039672;28;20115;-60
2021/04/28 00:13:16;;;;;;;13.50;8.20;;;;;;;6.74;85.38;94958.75;1035477;28;20100;-61
2021/04/28 00:13:47;;;;;;;15.30;7.47;;;;;;;6.73;86.30;94954.47;1035353;28;20036;-60
2021/04/28 00:14:18;;;;;;;13.80;8.20;;;;;;;6.74;86.14;94956.09;1027596;28;20497;-60
2021/04/28 00:14:49;;;;;;;15.60;8.75;;;;;;;6.73;86.48;94954.47;1031539;28;20015;-60
2021/04/28 00:15:28;;;;;;;14.90;7.90;;;;;;;6.72;86.49;94958.94;1027537;28;20377;-60
2021/04/28 00:15:59;;;;;;;13.40;7.80;;;;;;;6.73;86.55;94954.47;1031132;28;20429;-59
2021/04/28 00:16:31;;;;;;;12.43;7.82;;;;;;;6.73;85.92;94959.75;1030461;28;20401;-61
2021/04/28 00:17:02;;;;;;;14.25;7.40;;;;;;;6.72;86.10;94952.81;1031610;28;20624;-61
2021/04/28 00:17:34;;;;;;;14.60;8.40;;;;;;;6.72;86.52;94958.09;1035586;28;20010;-60
2021/04/28 00:18:04;;;;;;;17.35;8.02;;;;;;;6.71;86.55;94959.13;1039599;28;20026;-60
2021/04/28 00:18:35;;;;;;;14.27;8.48;;;;;;;6.71;87.30;94961.75;1031534;28;20023;-59
2021/04/28 00:19:06;;;;;;;13.85;7.70;;;;;;;6.70;86.72;94960.09;1031548;28;20559;-60
2021/04/28 00:19:37;;;;;;;13.52;8.05;;;;;;;6.70;87.71;94965.38;1035386;28;20025;-61
2021/04/28 00:20:09;;;;;;;11.60;8.02;;;;;;;6.71;87.87;94952.00;1027387;28;20504;-60
2021/04/28 00:20:41;;;;;;;14.85;7.68;;;;;;;6.69;87.89;94954.00;1031511;28;20038;-61
2021/04/28 00:21:13;;;;;;;13.98;7.70;;;;;;;6.70;87.97;94960.09;1031631;28;20443;-60
2021/04/28 00:21:44;;;;;;;13.85;8.45;;;;;;;6.71;87.83;94956.47;1031553;28;20030;-58
2021/04/28 00:22:15;;;;;;;14.52;8.85;;;;;;;6.68;87.76;94957.63;1027455;28;20034;-60
2021/04/28 00:22:46;;;;;;;15.30;7.85;;;;;;;6.68;88.47;94959.47;1031637;28;20368;-60
2021/04/28 00:23:17;;;;;;;11.85;7.63;;;;;;;6.68;88.47;94962.91;1035719;28;20018;-61
2021/04/28 00:23:47;;;;;;;12.85;8.30;;;;;;;6.69;88.54;94953.16;1031196;28;20018;-59
2021/04/28 00:24:18;;;;;;;16.45;8.70;;;;;;;6.69;88.81;94959.28;1039540;28;20028;-60
2021/04/28 00:24:49;;;;;;;18.45;7.82;;;;;;;6.68;89.35;94951.56;1035453;28;20060;-60
2021/04/28 00:25:21;;;;;;;12.63;7.68;;;;;;;6.68;89.75;94951.56;1031565;28;20021;-60
2021/04/28 00:25:52;;;;;;;12.35;7.90;;;;;;;6.66;89.94;94951.72;1031551;28;20026;-60
2021/04/28 00:26:23;;;;;;;13.02;8.40;;;;;;;6.66;90.87;94957.00;1031451;28;20510;-60
2021/04/28 00:26:54;;;;;;;14.52;8.77;;;;;;;6.66;90.66;94951.72;1031562;28;20014;-60
2021/04/28 00:27:25;;;;;;;12.10;8.20;;;;;;;6.66;90.39;94950.91;1031542;28;20014;-60
2021/04/28 00:27:56;;;;;;;13.13;8.02;;;;;;;6.67;90.79;94945.47;1035556;28;20546;-61
2021/04/28 00:28:26;;;;;;;11.27;7.80;;;;;;;6.69;90.63;94954.00;1035507;28;20026;-60
2021/04/28 00:28:57;;;;;;;13.75;8.40;;;;;;;6.68;90.63;94954.19;1031614;28;20015;-60
2021/04/28 00:29:28;;;;;;;14.80;8.35;;;;;;;6.71;90.55;94949.38;1027553;28;20384;-60
2021/04/28 00:29:59;;;;;;;13.65;7.75;;;;;;;6.71;90.45;94946.75;1027543;28;20018;-61
2021/04/28 00:30:30;;;;;;;15.52;9.02;;;;;;;6.71;90.13;94951.19;1027415;28;20442;-60
2021/04/28 00:31:01;;;;;;;14.13;8.77;;;;;;;6.69;90.47;94947.91;1027527;28;20023;-60
2021/04/28 00:31:32;;;;;;;13.13;8.48;;;;;;;6.69;90.26;94948.75;1035535;28;20014;-59
2021/04/28 00:32:04;;;;;;;13.05;8.10;;;;;;;6.69;90.09;94942.63;1039653;28;20009;-61
2021/04/28 00:32:35;;;;;;;16.23;8.55;;;;;;;6.67;90.04;94949.91;1035392;28;20105;-60
2021/04/28 00:33:06;;;;;;;12.65;7.68;;;;;;;6.66;90.74;94943.81;1031512;28;20057;-59
2021/04/28 00:33:37;;;;;;;14.32;8.18;;;;;;;6.65;90.76;94944.78;1035353;28;20441;-60
2021/04/28 00:34:08;;;;;;;13.60;8.45;;;;;;;6.65;90.64;94942.16;1035654;28;20108;-59
2021/04/28 00:34:39;;;;;;;12.23;8.15;;;;;;;6.66;90.40;94941.16;1035573;28;20523;-61
2021/04/28 00:35:12;;;;;;;15.10;9.02;;;;;;;6.65;90.12;94942.16;1027665;28;20015;-60
2021/04/28 00:35:43;;;;;;;12.65;8.45;;;;;;;6.65;90.50;94946.63;1027568;28;20613;-61
2021/04/28 00:36:14;;;;;;;14.15;7.93;;;;;;;6.64;90.55;94947.63;1027612;28;20023;-60
2021/04/28 00:36:45;;;;;;;13.35;7.88;;;;;;;6.62;90.47;94942.53;1027306;28;20019;-60
2021/04/28 00:37:16;;;;;;;13.20;8.75;;;;;;;6.61;91.23;94946.97;1031474;28;20500;-60
2021/04/28 00:37:47;;;;;;;14.18;8.15;;;;;;;6.56;91.12;94933.47;1035589;28;20048;-58
2021/04/28 00:38:18;;;;;;;13.23;8.52;;;;;;;6.60;90.96;94942.69;1035545;28;20030;-60
2021/04/28 00:38:49;;;;;;;12.27;8.27;;;;;;;6.60;90.87;94939.22;1031286;28;20038;-59
2021/04/28 00:39:20;;;;;;;13.23;8.50;;;;;;;6.58;91.05;94936.78;1035550;28;20013;-59
2021/04/28 00:39:51;;;;;;;11.25;7.97;;;;;;;6.58;90.84;94942.06;1031746;28;20109;-63
2021/04/28 00:40:25;;;;;;;13.00;8.55;;;;;;;6.58;90.79;94942.06;1031847;28;20018;-62
2021/04/28 00:40:56;;;;;;;13.82;8.02;;;;;;;6.56;91.34;94940.59;1032034;28;20494;-61
2021/04/28 00:41:27;;;;;;;13.48;8.10;;;;;;;6.56;91.35;94941.41;1032009;28;20011;-60
2021/04/28 00:41:58;;;;;;;14.05;8.40;;;;;;;6.55;91.01;94947.69;1027532;28;20023;-61
2021/04/28 00:42:29;;;;;;;15.88;9.20;;;;;;;6.49;91.89;94929.91;1027466;28;20014;-60
2021/04/28 00:42:59;;;;;;;12.43;7.90;;;;;;;6.53;91.97;94943.56;1035456;28;20044;-60
2021/04/28 00:43:31;;;;;;;13.32;9.32;;;;;;;6.51;91.57;94941.09;1031387;28;20022;-61
2021/04/28 00:44:02;;;;;;;16.35;9.13;;;;;;;6.49;91.91;94943.09;1031446;28;20428;-60
2021/04/28 00:44:33;;;;;;;17.67;8.43;;;;;;;6.48;92.34;94936.19;1031506;28;20419;-60
2021/04/28 00:45:05;;;;;;;12.57;8.35;;;;;;;6.45;92.75;94936.53;1031284;28;20023;-61
2021/04/28 00:45:36;;;;;;;14.00;8.73;;;;;;;6.44;92.75;94944.63;1031560;28;20019;-61
2021/04/28 00:46:07;;;;;;;12.85;8.35;;;;;;;6.43;93.19;94943.81;1027616;28;20502;-60
2021/04/28 00:46:38;;;;;;;13.68;8.50;;;;;;;6.43;92.72;94941.19;1027498;28;20102;-61
2021/04/28 00:47:09;;;;;;;13.07;8.93;;;;;;;6.43;93.29;94938.53;1027419;28;20449;-62
2021/04/28 00:47:40;;;;;;;12.45;7.20;;;;;;;6.37;93.10;94928.69;1031421;28;20025;-60
2021/04/28 00:48:12;;;;;;;11.65;8.40;;;;;;;6.40;93.33;94938.88;1035538;28;20018;-60
2021/04/28 00:48:42;;;;;;;14.80;8.73;;;;;;;6.39;93.63;94945.13;1027490;28;20037;-61
2021/04/28 00:49:13;;;;;;;12.85;8.50;;;;;;;6.39;94.27;94940.72;1035307;28;20040;-60
2021/04/28 00:49:44;;;;;;;12.32;8.07;;;;;;;6.38;94.19;94943.53;1027513;28;20015;-60
2021/04/28 00:50:19;;;;;;;15.50;8.70;;;;;;;6.34;94.37;94943.03;1031444;28;20400;-60
2021/04/28 00:50:51;;;;;;;16.75;8.77;;;;;;;6.34;94.77;94935.13;1035524;28;20437;-60
2021/04/28 00:51:22;;;;;;;16.85;8.77;;;;;;;6.34;94.49;94942.22;1035390;28;20551;-61
2021/04/28 00:51:53;;;;;;;14.73;7.95;;;;;;;6.33;94.14;94937.94;1031425;28;20018;-61
2021/04/28 00:52:24;;;;;;;13.02;7.75;;;;;;;6.33;94.04;94932.69;1039572;28;20010;-60
2021/04/28 00:52:55;;;;;;;12.18;8.23;;;;;;;6.32;94.40;94933.66;1039563;28;20037;-60
2021/04/28 00:53:26;;;;;;;15.05;8.20;;;;;;;6.30;94.57;94931.19;1031327;28;20014;-61
2021/04/28 00:53:58;;;;;;;14.25;8.13;;;;;;;6.32;94.58;94933.66;1031299;28;20416;-61
2021/04/28 00:54:29;;;;;;;12.82;8.73;;;;;;;6.28;94.96;94938.47;1035658;28;20021;-60
2021/04/28 00:55:00;;;;;;;16.05;8.68;;;;;;;6.27;95.41;94936.00;1035619;28;20021;-59
2021/04/28 00:55:31;;;;;;;14.25;8.23;;;;;;;6.26;95.30;94942.28;1027361;28;20011;-60
2021/04/28 00:56:02;;;;;;;13.85;8.70;;;;;;;6.26;95.65;94935.19;1031509;28;20013;-60
2021/04/28 00:56:33;;;;;;;11.85;8.27;;;;;;;6.26;95.31;94931.72;1031491;28;20046;-60
2021/04/28 00:57:05;;;;;;;13.02;8.38;;;;;;;6.20;95.31;94934.06;1039669;28;20047;-60
2021/04/28 00:57:36;;;;;;;13.40;8.75;;;;;;;6.18;95.79;94936.06;1039441;28;20821;-61
2021/04/28 00:58:07;;;;;;;13.45;8.65;;;;;;;6.19;95.91;94935.06;1031515;28;20089;-60
2021/04/28 00:58:38;;;;;;;14.90;8.68;;;;;;;6.19;96.13;94937.69;1027360;28;20015;-60
2021/04/28 00:59:11;;;;;;;14.57;9.20;;;;;;;6.18;95.87;94935.22;1027497;28;20117;-60
2021/04/28 00:59:42;;;;;;;14.40;9.23;;;;;;;6.18;96.52;94930.78;1027290;28;20061;-60
2021/04/28 01:00:15;;;;;;;11.82;8.52;;;;;;;6.17;96.58;94938.88;1031388;28;20022;-61
2021/04/28 01:00:46;;;;;;;13.85;8.98;;;;;;;6.18;96.56;94933.44;1031656;28;20502;-60
2021/04/28 01:01:17;;;;;;;11.60;8.35;;;;;;;6.17;96.82;94933.59;1027448;28;20026;-60
2021/04/28 01:01:48;;;;;;;13.43;9.07;;;;;;;6.15;97.24;94936.41;1036025;28;20116;-60
2021/04/28 01:02:18;;;;;;;12.98;8.13;;;;;;;6.14;97.43;94934.75;1032168;28;20014;-60
2021/04/28 01:02:50;;;;;;;15.70;9.77;;;;;;;6.12;97.26;94935.94;1036312;28;20079;-60
2021/04/28 01:03:22;;;;;;;17.02;9.30;;;;;;;6.13;97.54;94933.13;1028162;28;20073;-59
2021/04/28 01:03:54;;;;;;;15.75;9.20;;;;;;;6.12;97.33;94935.94;1027860;28;20504;-59
2021/04/28 01:04:25;;;;;;;14.77;9.05;;;;;;;6.13;97.71;94935.75;1032251;28;20105;-61
2021/04/28 01:04:56;;;;;;;12.60;8.50;;;;;;;6.12;98.07;94936.75;1036127;28;20507;-59
2021/04/28 01:05:27;;;;;;;14.13;8.50;;;;;;;6.11;97.81;94945.63;1040358;28;20025;-60
2021/04/28 01:06:00;;;;;;;14.15;8.90;;;;;;;6.09;98.70;94933.63;1040231;28;20085;-60
2021/04/28 01:06:32;;;;;;;13.40;8.85;;;;;;;6.10;98.39;94933.47;1036263;28;20056;-60
2021/04/28 01:07:05;;;;;;;14.90;9.13;;;;;;;6.09;99.07;94929.19;1036887;28;20026;-60
2021/04/28 01:07:36;;;;;;;14.10;8.95;;;;;;;6.09;99.21;94933.63;1032157;28;20026;-60
2021/04/28 01:08:07;;;;;;;16.33;9.18;;;;;;;6.04;98.74;94931.50;1028041;28;20023;-60
2021/04/28 01:08:39;;;;;;;14.85;8.77;;;;;;;6.06;99.10;94940.09;1028177;28;20382;-60
2021/04/28 01:09:12;;;;;;;13.43;9.20;;;;;;;6.07;99.24;94936.44;1028317;28;20388;-60
2021/04/28 01:09:43;;;;;;;17.35;9.90;;;;;;;6.06;99.23;94940.09;1032188;28;20032;-61
2021/04/28 01:10:16;;;;;;;17.55;9.85;;;;;;;6.06;99.69;94939.25;1040236;28;20052;-59
2021/04/28 01:10:48;;;;;;;12.88;8.85;;;;;;;6.03;99.44;94938.59;1036183;28;20018;-60
2021/04/28 01:11:19;;;;;;;13.38;8.88;;;;;;;6.04;99.49;94939.41;1027867;28;20023;-61
2021/04/28 01:11:50;;;;;;;13.18;9.55;;;;;;;6.03;99.86;94943.88;1040291;28;20152;-60
2021/04/28 01:12:21;;;;;;;14.18;8.75;;;;;;;6.02;100.00;94942.22;1040115;28;20026;-60
2021/04/28 01:12:52;;;;;;;15.50;9.48;;;;;;;6.00;100.00;94940.78;1036313;28;20022;-60
2021/04/28 01:13:24;;;;;;;14.80;9.48;;;;;;;6.01;100.00;94939.78;1036256;28;20108;-60
2021/04/28 01:13:56;;;;;;;16.88;9.60;;;;;;;6.00;100.00;94946.03;1032004;28;20025;-60
2021/04/28 01:14:27;;;;;;;13.77;9.60;;;;;;;5.99;100.00;94947.03;1040247;28;20518;-60
2021/04/28 01:14:58;;;;;;;13.95;8.73;;;;;;;5.98;100.00;94940.94;1036083;28;20053;-58
2021/04/28 01:15:31;;;;;;;13.38;9.95;;;;;;;5.97;100.00;94943.75;1032247;28;20087;-60
2021/04/28 01:16:02;;;;;;;13.77;8.43;;;;;;;5.96;100.00;94940.28;1036163;28;20018;-60
2021/04/28 01:16:33;;;;;;;14.52;9.02;;;;;;;5.95;100.00;94940.44;1036227;28;20108;-60
2021/04/28 01:17:05;;;;;;;14.65;9.55;;;;;;;5.94;100.00;94939.63;1036333;28;20069;-60
2021/04/28 01:17:36;;;;;;;15.55;9.73;;;;;;;5.93;100.00;94934.53;1036333;28;20516;-61
2021/04/28 01:18:08;;;;;;;12.77;8.80;;;;;;;5.92;100.00;94946.03;1028572;28;20023;-60
2021/04/28 01:18:38;;;;;;;14.80;9.73;;;;;;;5.91;100.00;94939.16;1024135;28;20159;-60
2021/04/28 01:19:09;;;;;;;14.63;9.63;;;;;;;5.93;100.00;94937.16;1036170;28;20032;-60
2021/04/28 01:19:40;;;;;;;14.30;9.77;;;;;;;5.92;100.00;94931.06;1028038;28;20528;-60
2021/04/28 01:20:14;;;;;;;17.02;9.95;;;;;;;5.94;100.00;94933.50;1040329;28;20025;-60
2021/04/28 01:20:46;;;;;;;12.35;8.82;;;;;;;5.95;100.00;94935.16;1040216;28;20032;-59
2021/04/28 01:21:16;;;;;;;13.10;8.93;;;;;;;5.94;100.00;94928.25;1031991;28;20022;-60
2021/04/28 01:21:49;;;;;;;12.90;8.50;;;;;;;5.95;100.00;94930.69;1028146;28;20485;-62
2021/04/28 01:22:20;;;;;;;13.95;9.13;;;;;;;5.98;100.00;94938.31;1028082;28;20026;-60
2021/04/28 01:22:51;;;;;;;14.32;8.75;;;;;;;5.98;100.00;94934.84;1036135;28;20024;-60
2021/04/28 01:23:22;;;;;;;16.92;9.48;;;;;;;5.96;100.00;94932.38;1036303;28;20044;-60
2021/04/28 01:23:52;;;;;;;15.48;8.90;;;;;;;5.96;100.00;94942.13;1040040;28;20025;-59
2021/04/28 01:24:23;;;;;;;15.13;9.40;;;;;;;5.96;100.00;94936.84;1040229;28;20103;-60
2021/04/28 01:24:54;;;;;;;13.48;9.55;;;;;;;5.97;100.00;94933.19;1036058;28;20408;-60
2021/04/28 01:25:26;;;;;;;14.50;9.02;;;;;;;5.97;100.00;94933.19;1032175;28;20488;-60
2021/04/28 01:25:57;;;;;;;14.07;8.93;;;;;;;5.97;100.00;94933.19;1032073;28;20022;-60
2021/04/28 01:26:29;;;;;;;16.55;9.85;;;;;;;5.96;100.00;94936.84;1028074;28;20022;-60
2021/04/28 01:27:02;;;;;;;14.52;9.57;;;;;;;5.96;100.00;94936.84;1032125;28;20503;-61
2021/04/28 01:27:33;;;;;;;19.15;9.85;;;;;;;5.95;100.00;94937.81;1032253;28;20025;-60
2021/04/28 01:28:07;;;;;;;14.05;9.40;;;;;;;5.94;100.00;94931.72;1028226;28;20049;-60
2021/04/28 01:28:38;;;;;;;13.63;9.43;;;;;;;5.92;100.00;94931.06;1036187;28;20068;-61
2021/04/28 01:29:08;;;;;;;17.08;9.88;;;;;;;5.93;100.00;94927.44;1032044;28;20522;-60
2021/04/28 01:29:40;;;;;;;13.75;9.23;;;;;;;5.92;100.00;94931.06;1032052;28;20185;-59
2021/04/28 01:30:12;;;;;;;16.98;10.30;;;;;;;5.90;100.00;94929.59;1032202;28;20429;-60
2021/04/28 01:30:55;;;;;;;14.65;9.93;;;;;;;5.90;100.00;94926.94;1032096;28;20022;-60
2021/04/28 01:31:28;;;;;;;15.27;9.82;;;;;;;5.91;100.00;94928.59;1028108;28;20019;-60
2021/04/28 01:31:59;;;;;;;16.00;9.20;;;;;;;5.91;100.00;94936.50;1032227;28;20034;-60
2021/04/28 01:32:30;;;;;;;15.00;9.48;;;;;;;5.89;100.00;94936.69;1032059;28;20028;-61
2021/04/28 01:33:01;;;;;;;15.35;9.70;;;;;;;5.86;100.00;94935.19;1028024;28;20026;-61
2021/04/28 01:33:37;;;;;;;14.48;9.05;;;;;;;5.88;100.00;94931.56;1040137;28;20041;-61
2021/04/28 01:34:08;;;;;;;15.20;9.45;;;;;;;5.86;100.00;94932.56;1036075;28;20053;-60
2021/04/28 01:34:39;;;;;;;20.65;10.15;;;;;;;5.88;100.00;94928.94;1036067;28;20492;-59
2021/04/28 01:35:10;;;;;;;14.07;9.23;;;;;;;5.82;100.00;94922.56;1027967;28;20081;-60
2021/04/28 01:35:42;;;;;;;14.35;9.73;;;;;;;5.86;100.00;94927.28;1032119;28;20030;-60
2021/04/28 01:36:16;;;;;;;17.33;10.27;;;;;;;5.86;100.00;94929.94;1024205;29;20464;-60
2021/04/28 01:36:47;;;;;;;14.77;10.15;;;;;;;5.88;100.00;94934.22;1028033;28;20034;-61
2021/04/28 01:37:18;;;;;;;16.60;9.80;;;;;;;5.89;100.00;94935.84;1027859;28;20034;-59
2021/04/28 01:37:49;;;;;;;16.63;9.80;;;;;;;5.86;100.00;94935.19;1032115;28;20532;-60
2021/04/28 01:38:21;;;;;;;14.20;9.48;;;;;;;5.86;100.00;94937.81;1032155;28;20026;-60
2021/04/28 01:38:56;;;;;;;17.90;9.82;;;;;;;5.86;100.00;94937.81;1032041;28;20030;-61
2021/04/28 01:39:27;;;;;;;16.15;10.05;;;;;;;5.86;100.00;94929.94;1036034;28;20109;-60
2021/04/28 01:39:58;;;;;;;16.05;10.13;;;;;;;5.85;100.00;94933.56;1040168;28;20104;-60
2021/04/28 01:40:29;;;;;;;13.20;9.70;;;;;;;5.85;100.00;94927.47;1031975;28;20511;-60
2021/04/28 01:41:00;;;;;;;14.02;10.00;;;;;;;5.85;100.00;94933.56;1032148;28;20108;-60
2021/04/28 01:41:34;;;;;;;14.10;10.02;;;;;;;5.84;100.00;94929.28;1036063;28;20049;-60
2021/04/28 01:42:05;;;;;;;15.18;9.73;;;;;;;5.84;100.00;94929.28;1036041;28;20036;-59
2021/04/28 01:42:36;;;;;;;15.35;9.57;;;;;;;5.85;100.00;94932.72;1032130;28;20026;-61
2021/04/28 01:43:07;;;;;;;15.25;10.30;;;;;;;5.83;100.00;94932.94;1031953;28;20018;-61
2021/04/28 01:43:40;;;;;;;14.27;9.68;;;;;;;5.82;100.00;94931.28;1031765;28;20576;-60
2021/04/28 01:44:13;;;;;;;16.38;10.68;;;;;;;5.81;100.00;94934.88;1028053;28;20113;-59
2021/04/28 01:44:45;;;;;;;14.68;10.30;;;;;;;5.81;100.00;94929.63;1028056;28;20030;-60
2021/04/28 01:45:17;;;;;;;16.45;9.68;;;;;;;5.80;100.00;94933.25;1031937;28;20051;-59
2021/04/28 01:45:49;;;;;;;14.40;10.00;;;;;;;5.80;100.00;94937.69;1028273;28;20549;-60
2021/04/28 01:46:23;;;;;;;15.48;10.25;;;;;;;5.79;100.00;94936.06;1037568;28;20022;-60
2021/04/28 01:46:54;;;;;;;15.10;9.52;;;;;;;5.68;100.00;94916.19;1033833;28;20022;-61
2021/04/28 01:47:25;;;;;;;12.98;9.32;;;;;;;5.78;100.00;94929.16;1025477;28;20055;-60
2021/04/28 01:47:56;;;;;;;20.63;10.45;;;;;;;5.72;100.00;94922.75;1029888;28;20042;-61
2021/04/28 01:48:27;;;;;;;17.75;10.30;;;;;;;5.76;100.00;94926.69;1029665;28;20066;-61
2021/04/28 01:48:59;;;;;;;14.50;9.38;;;;;;;5.76;100.00;94928.50;1033717;28;20052;-59
2021/04/28 01:49:30;;;;;;;19.25;10.55;;;;;;;5.75;100.00;94927.69;1034105;28;20026;-60
2021/04/28 01:50:01;;;;;;;13.85;10.15;;;;;;;5.75;100.00;94930.31;1034423;28;20510;-60
2021/04/28 01:50:32;;;;;;;15.75;10.32;;;;;;;5.73;100.00;94927.03;1034502;28;20018;-60
2021/04/28 01:51:04;;;;;;;13.88;9.45;;;;;;;5.73;100.00;94929.69;1034493;28;20492;-60
2021/04/28 01:51:34;;;;;;;14.55;9.95;;;;;;;5.74;100.00;94933.13;1034577;28;20026;-60
2021/04/28 01:52:05;;;;;;;15.40;9.88;;;;;;;5.75;100.00;94926.88;1034535;28;20066;-62
2021/04/28 01:52:37;;;;;;;17.67;10.15;;;;;;;5.75;100.00;94930.31;1034823;28;20081;-60
2021/04/28 01:53:07;;;;;;;14.93;9.48;;;;;;;5.76;100.00;94931.13;1028528;28;20501;-59
2021/04/28 01:53:38;;;;;;;17.75;10.77;;;;;;;5.74;100.00;94928.66;1027761;28;20026;-60
2021/04/28 01:54:13;;;;;;;19.00;10.85;;;;;;;5.73;100.00;94929.69;1028118;28;20023;-59
2021/04/28 01:54:47;;;;;;;17.02;10.10;;;;;;;5.74;100.00;94930.50;1032152;28;20018;-60
2021/04/28 01:55:19;;;;;;;14.60;10.70;;;;;;;5.72;100.00;94930.66;1027981;28;20014;-60
2021/04/28 01:55:52;;;;;;;13.65;9.95;;;;;;;5.71;100.00;94928.19;1031865;28;20099;-59
2021/04/28 01:56:23;;;;;;;16.70;10.68;;;;;;;5.70;100.00;94927.38;1028002;28;20114;-61
2021/04/28 01:56:54;;;;;;;17.30;10.68;;;;;;;5.68;100.00;94926.72;1032129;28;20049;-61
2021/04/28 01:57:25;;;;;;;14.43;9.77;;;;;;;5.69;100.00;94924.91;1036015;28;20068;-60
2021/04/28 01:57:56;;;;;;;17.13;9.75;;;;;;;5.69;100.00;94930.19;1031935;28;20022;-60
2021/04/28 01:58:28;;;;;;;14.40;9.18;;;;;;;5.67;100.00;94932.97;1036043;28;20570;-60
2021/04/28 01:58:59;;;;;;;14.15;10.32;;;;;;;5.66;100.00;94926.91;1027867;28;20030;-62
2021/04/28 01:59:30;;;;;;;17.40;10.48;;;;;;;5.68;100.00;94926.72;1035876;28;20028;-60
2021/04/28 02:00:01;;;;;;;17.33;10.77;;;;;;;5.67;100.00;94925.06;1035878;28;20018;-58
2021/04/28 02:00:32;;;;;;;20.48;11.07;;;;;;;5.65;100.00;94925.25;1027952;28;20612;-60
2021/04/28 02:01:04;;;;;;;14.63;10.05;;;;;;;5.63;100.00;94921.97;1028110;28;20081;-60
2021/04/28 02:01:35;;;;;;;17.58;10.35;;;;;;;5.63;100.00;94931.69;1031971;28;20030;-61
2021/04/28 02:02:07;;;;;;;19.25;10.70;;;;;;;5.62;100.00;94925.56;1027936;28;20393;-59
2021/04/28 02:02:39;;;;;;;16.52;9.93;;;;;;;5.58;100.00;94926.13;1031923;28;20030;-60
2021/04/28 02:03:10;;;;;;;15.98;10.25;;;;;;;5.60;100.00;94918.84;1031964;28;20026;-60
2021/04/28 02:03:41;;;;;;;14.63;10.60;;;;;;;5.60;100.00;94922.31;1031633;28;20405;-59
2021/04/28 02:04:12;;;;;;;16.15;10.70;;;;;;;5.58;100.00;94926.94;1023854;29;20082;-60
2021/04/28 02:04:42;;;;;;;14.98;10.05;;;;;;;5.55;100.00;94929.06;1027876;28;20022;-60
2021/04/28 02:05:14;;;;;;;16.85;10.48;;;;;;;5.55;100.00;94931.72;1027925;28;20033;-60
2021/04/28 02:05:45;;;;;;;20.67;10.73;;;;;;;5.55;100.00;94923.81;1031996;28;20428;-60
2021/04/28 02:06:16;;;;;;;16.50;10.05;;;;;;;5.54;100.00;94922.16;1031900;28;20019;-60
2021/04/28 02:06:48;;;;;;;15.80;10.18;;;;;;;5.52;100.00;94925.00;1031946;28;20018;-59
2021/04/28 02:07:19;;;;;;;15.23;10.45;;;;;;;5.54;100.00;94927.44;1040106;28;20051;-60
2021/04/28 02:07:51;;;;;;;15.77;9.98;;;;;;;5.55;100.00;94927.25;1040091;28;20052;-61
2021/04/28 02:08:22;;;;;;;18.13;10.70;;;;;;;5.53;100.00;94925.81;1040018;28;20013;-60
2021/04/28 02:08:53;;;;;;;16.27;10.15;;;;;;;5.54;100.00;94928.28;1036033;28;20427;-60
2021/04/28 02:09:24;;;;;;;15.07;10.50;;;;;;;5.55;100.00;94924.63;1031849;28;20030;-60
2021/04/28 02:09:55;;;;;;;18.90;10.48;;;;;;;5.53;100.00;94928.44;1040066;28;20018;-60
2021/04/28 02:10:26;;;;;;;17.75;10.50;;;;;;;5.53;100.00;94925.81;1031830;28;20015;-60
2021/04/28 02:10:58;;;;;;;19.50;11.02;;;;;;;5.52;100.00;94925.00;1027981;28;20102;-60
2021/04/28 02:11:29;;;;;;;15.57;11.02;;;;;;;5.35;100.00;94903.16;1027628;28;20023;-60
2021/04/28 02:12:01;;;;;;;15.45;10.43;;;;;;;5.52;100.00;94927.63;1027951;28;20071;-59
2021/04/28 02:12:32;;;;;;;16.20;10.85;;;;;;;5.53;100.00;94920.53;1031786;28;20026;-60
2021/04/28 02:13:03;;;;;;;15.65;10.38;;;;;;;5.49;100.00;94920.06;1031372;28;20145;-60
2021/04/28 02:13:37;;;;;;;18.77;10.82;;;;;;;5.47;100.00;94925.50;1035427;28;20026;-60
2021/04/28 02:14:13;;;;;;;17.08;10.35;;;;;;;5.47;100.00;94919.41;1035999;28;20022;-60
2021/04/28 02:14:47;;;;;;;15.63;10.75;;;;;;;5.51;100.00;94922.53;1027866;28;20031;-60
2021/04/28 02:15:19;;;;;;;15.60;10.40;;;;;;;5.46;100.00;94920.38;1031865;28;20041;-60
2021/04/28 02:15:50;;;;;;;16.40;10.45;;;;;;;5.43;100.00;94920.72;1040011;28;20376;-61
2021/04/28 02:16:21;;;;;;;18.98;10.98;;;;;;;5.43;100.00;94926.00;1031892;28;20018;-61
2021/04/28 02:16:52;;;;;;;13.23;9.43;;;;;;;5.39;100.00;94909.72;1027824;28;20019;-62
2021/04/28 02:17:23;;;;;;;16.88;9.75;;;;;;;5.43;100.00;94926.81;1023805;29;20034;-60
2021/04/28 02:17:57;;;;;;;18.25;11.13;;;;;;;5.44;100.00;94923.19;1035953;28;20014;-60
2021/04/28 02:18:28;;;;;;;15.55;10.63;;;;;;;5.46;100.00;94915.13;1035827;28;20391;-60
2021/04/28 02:19:03;;;;;;;17.23;9.70;;;;;;;5.45;100.00;94916.94;1023881;28;20105;-60
2021/04/28 02:19:37;;;;;;;15.68;10.25;;;;;;;5.44;100.00;94928.44;1027774;28;20026;-62
2021/04/28 02:20:09;;;;;;;21.15;10.02;;;;;;;5.43;100.00;94929.47;1027969;28;20022;-61
2021/04/28 02:20:40;;;;;;;17.10;10.85;;;;;;;5.43;100.00;94923.34;1031855;28;20023;-60
2021/04/28 02:21:11;;;;;;;18.65;11.13;;;;;;;5.41;100.00;94923.53;1027949;28;20106;-61
2021/04/28 02:21:43;;;;;;;15.00;9.90;;;;;;;5.43;100.00;94924.19;1035972;28;20022;-60
2021/04/28 02:22:14;;;;;;;16.88;10.35;;;;;;;5.43;100.00;94924.19;1035971;28;20500;-60
2021/04/28 02:22:45;;;;;;;15.93;10.57;;;;;;;5.41;100.00;94920.88;1035892;28;20392;-62
2021/04/28 02:23:16;;;;;;;15.95;10.55;;;;;;;5.31;100.00;94906.28;1040043;28;20096;-62
2021/04/28 02:23:48;;;;;;;15.88;10.20;;;;;;;5.40;100.00;94916.63;1035712;28;20094;-60
2021/04/28 02:24:19;;;;;;;14.48;10.38;;;;;;;5.42;100.00;94925.16;1031823;28;20500;-60
2021/04/28 02:24:50;;;;;;;22.20;11.68;;;;;;;5.33;100.00;94909.56;1035947;28;20094;-62
2021/04/28 02:25:21;;;;;;;16.33;10.55;;;;;;;5.39;100.00;94920.25;1035815;28;20042;-60
2021/04/28 02:25:55;;;;;;;15.23;10.38;;;;;;;5.39;100.00;94920.25;1027977;28;20023;-60
2021/04/28 02:26:25;;;;;;;15.75;10.88;;;;;;;5.39;100.00;94927.31;1031844;28;20081;-60
2021/04/28 02:26:57;;;;;;;14.18;10.32;;;;;;;5.38;100.00;94929.16;1031914;28;20105;-61